Terminal Aerodrome Forecast
Issued by NWS

Home | Current Version | Previous Version | Text Only | Print | Product List | Glossary Off
Versions: 1 2 3 4 5 6 7 8 9 10 11 12 13 14 15 16
000 FTUS41 KBOX 241732 TAFBED TAF KBED 241732Z 2418/2518 33009KT P6SM OVC020 FM242100 32008KT P6SM OVC030 FM250100 32006KT P6SM BKN035 FM250700 30004KT P6SM SCT100=

USA.gov is the U.S. government's official web portal to all federal, state and local government web resources and services.